sensor_id;sensor_type;location;lat;lon;timestamp;pressure;altitude;pressure_sealevel;temperature;humidity
66206;BME280;53009;52.490;4.976;2022-10-16T00:00:57;100900;;;13.8;7.2
66206;BME280;53009;52.490;4.976;2022-10-16T00:02:56;100900;;;13.8;7.2
66206;BME280;53009;52.490;4.976;2022-10-16T00:04:42;100900;;;13.8;7.2
66206;BME280;53009;52.490;4.976;2022-10-16T00:08:43;100900;;;13.8;7.2
66206;BME280;53009;52.490;4.976;2022-10-16T00:10:46;100900;;;13.8;7.2
66206;BME280;53009;52.490;4.976;2022-10-16T00:11:36;100900;;;13.8;7.1
66206;BME280;53009;52.490;4.976;2022-10-16T00:14:58;100900;;;13.8;7.2
66206;BME280;53009;52.490;4.976;2022-10-16T00:17:08;100900;;;13.8;7.1
66206;BME280;53009;52.490;4.976;2022-10-16T00:18:35;100900;;;13.7;7.1
66206;BME280;53009;52.490;4.976;2022-10-16T00:18:55;100900;;;13.7;7.1
66206;BME280;53009;52.490;4.976;2022-10-16T00:19:54;100900;;;13.7;7.2
66206;BME280;53009;52.490;4.976;2022-10-16T00:24:54;100900;;;13.7;7.2
66206;BME280;53009;52.490;4.976;2022-10-16T00:28:21;100900;;;13.7;7.1
66206;BME280;53009;52.490;4.976;2022-10-16T00:31:26;100900;;;13.7;7.1
66206;BME280;53009;52.490;4.976;2022-10-16T00:34:40;100900;;;13.7;7.1
66206;BME280;53009;52.490;4.976;2022-10-16T00:35:38;100900;;;13.7;7.1
66206;BME280;53009;52.490;4.976;2022-10-16T00:37:48;100900;;;13.7;7.1
66206;BME280;53009;52.490;4.976;2022-10-16T00:42:02;100900;;;13.7;7.1
66206;BME280;53009;52.490;4.976;2022-10-16T00:43:11;100900;;;13.7;7
66206;BME280;53009;52.490;4.976;2022-10-16T00:48:11;100900;;;13.7;7.1
66206;BME280;53009;52.490;4.976;2022-10-16T00:49:29;100900;;;13.7;7
66206;BME280;53009;52.490;4.976;2022-10-16T00:53:56;100900;;;13.7;7
66206;BME280;53009;52.490;4.976;2022-10-16T00:55:10;100900;;;13.6;7
66206;BME280;53009;52.490;4.976;2022-10-16T01:00:12;100900;;;13.6;7
66206;BME280;53009;52.490;4.976;2022-10-16T01:05:10;100900;;;13.6;6.9
66206;BME280;53009;52.490;4.976;2022-10-16T01:10:13;100900;;;13.6;6.9
66206;BME280;53009;52.490;4.976;2022-10-16T01:15:11;100900;;;13.6;7
66206;BME280;53009;52.490;4.976;2022-10-16T01:20:11;100900;;;13.6;7
66206;BME280;53009;52.490;4.976;2022-10-16T01:25:12;100900;;;13.6;7
66206;BME280;53009;52.490;4.976;2022-10-16T01:30:10;100900;;;13.5;7
66206;BME280;53009;52.490;4.976;2022-10-16T01:35:11;100900;;;13.5;7.1
66206;BME280;53009;52.490;4.976;2022-10-16T01:40:11;100900;;;13.5;7.1
66206;BME280;53009;52.490;4.976;2022-10-16T01:45:11;100900;;;13.5;7.2
66206;BME280;53009;52.490;4.976;2022-10-16T01:50:10;100900;;;13.4;7.2
66206;BME280;53009;52.490;4.976;2022-10-16T01:55:11;100900;;;13.4;7.2
66206;BME280;53009;52.490;4.976;2022-10-16T02:00:11;100900;;;13.4;7.2
66206;BME280;53009;52.490;4.976;2022-10-16T02:05:11;100900;;;13.4;7.3
66206;BME280;53009;52.490;4.976;2022-10-16T02:10:10;100900;;;13.4;7.2
66206;BME280;53009;52.490;4.976;2022-10-16T02:15:10;100900;;;13.4;7.3
66206;BME280;53009;52.490;4.976;2022-10-16T02:20:10;100900;;;13.4;7.4
66206;BME280;53009;52.490;4.976;2022-10-16T02:25:11;100900;;;13.4;7.5
66206;BME280;53009;52.490;4.976;2022-10-16T02:30:11;100900;;;13.4;7.6
66206;BME280;53009;52.490;4.976;2022-10-16T02:35:10;100900;;;13.3;7.7
66206;BME280;53009;52.490;4.976;2022-10-16T02:40:10;100900;;;13.3;7.9
66206;BME280;53009;52.490;4.976;2022-10-16T02:45:11;100900;;;13.3;8
66206;BME280;53009;52.490;4.976;2022-10-16T02:50:10;100900;;;13.2;8
66206;BME280;53009;52.490;4.976;2022-10-16T02:55:10;101000;;;13.3;8.2
66206;BME280;53009;52.490;4.976;2022-10-16T03:00:11;101000;;;13.3;8.2
66206;BME280;53009;52.490;4.976;2022-10-16T03:05:10;101000;;;13.3;8.2
66206;BME280;53009;52.490;4.976;2022-10-16T03:10:10;101000;;;13.3;8.2
66206;BME280;53009;52.490;4.976;2022-10-16T03:15:10;101000;;;13.3;8.2
66206;BME280;53009;52.490;4.976;2022-10-16T03:20:10;101000;;;13.3;8.2
66206;BME280;53009;52.490;4.976;2022-10-16T03:25:10;101000;;;13.2;8.3
66206;BME280;53009;52.490;4.976;2022-10-16T03:30:10;101000;;;13.3;8.4
66206;BME280;53009;52.490;4.976;2022-10-16T03:35:10;101000;;;13.3;8.4
66206;BME280;53009;52.490;4.976;2022-10-16T03:40:10;101000;;;13.3;8.4
66206;BME280;53009;52.490;4.976;2022-10-16T03:45:10;101000;;;13.3;8.4
66206;BME280;53009;52.490;4.976;2022-10-16T03:50:10;101000;;;13.3;8.3
66206;BME280;53009;52.490;4.976;2022-10-16T03:55:10;101000;;;13.3;8.5
66206;BME280;53009;52.490;4.976;2022-10-16T04:00:10;101000;;;13.3;8.4
66206;BME280;53009;52.490;4.976;2022-10-16T04:05:10;101000;;;13.3;8.4
66206;BME280;53009;52.490;4.976;2022-10-16T04:10:10;101000;;;13.3;8.4
66206;BME280;53009;52.490;4.976;2022-10-16T04:15:10;101000;;;13.3;8.5
66206;BME280;53009;52.490;4.976;2022-10-16T04:20:10;101000;;;13.3;8.5
66206;BME280;53009;52.490;4.976;2022-10-16T04:25:10;101000;;;13.3;8.5
66206;BME280;53009;52.490;4.976;2022-10-16T04:30:10;101000;;;13.2;8.5
66206;BME280;53009;52.490;4.976;2022-10-16T04:35:10;101000;;;13.2;8.5
66206;BME280;53009;52.490;4.976;2022-10-16T04:40:10;101000;;;13.2;8.6
66206;BME280;53009;52.490;4.976;2022-10-16T04:45:11;101000;;;13.2;8.7
66206;BME280;53009;52.490;4.976;2022-10-16T04:50:10;101000;;;13.2;8.7
66206;BME280;53009;52.490;4.976;2022-10-16T04:55:10;101000;;;13.3;8.7
66206;BME280;53009;52.490;4.976;2022-10-16T05:00:23;101000;;;13.3;8.6
66206;BME280;53009;52.490;4.976;2022-10-16T05:05:13;101000;;;13.3;8.7
66206;BME280;53009;52.490;4.976;2022-10-16T05:10:10;101100;;;13.3;8.6
66206;BME280;53009;52.490;4.976;2022-10-16T05:15:13;101100;;;13.3;8.7
66206;BME280;53009;52.490;4.976;2022-10-16T05:20:10;101100;;;13.3;8.8
66206;BME280;53009;52.490;4.976;2022-10-16T05:25:10;101100;;;13.3;8.8
66206;BME280;53009;52.490;4.976;2022-10-16T05:30:10;101100;;;13.3;8.7
66206;BME280;53009;52.490;4.976;2022-10-16T05:35:10;101100;;;13.3;8.8
66206;BME280;53009;52.490;4.976;2022-10-16T05:40:10;101100;;;13.3;9
66206;BME280;53009;52.490;4.976;2022-10-16T05:45:10;101100;;;13.3;9
66206;BME280;53009;52.490;4.976;2022-10-16T05:50:10;101100;;;13.3;9.2
66206;BME280;53009;52.490;4.976;2022-10-16T05:55:10;101100;;;13.3;9.2
66206;BME280;53009;52.490;4.976;2022-10-16T06:00:11;101100;;;13.3;9.3
66206;BME280;53009;52.490;4.976;2022-10-16T06:05:10;101100;;;13.3;9.4
66206;BME280;53009;52.490;4.976;2022-10-16T06:10:10;101100;;;13.3;9.5
66206;BME280;53009;52.490;4.976;2022-10-16T06:15:10;101100;;;13.3;9.5
66206;BME280;53009;52.490;4.976;2022-10-16T06:19:52;101100;;;13.3;9.4
66206;BME280;53009;52.490;4.976;2022-10-16T06:21:07;101100;;;13.4;9.5
66206;BME280;53009;52.490;4.976;2022-10-16T06:22:17;101100;;;13.4;9.4
66206;BME280;53009;52.490;4.976;2022-10-16T06:22:38;101100;;;13.4;9.4
66206;BME280;53009;52.490;4.976;2022-10-16T06:27:44;101100;;;13.4;9.3
66206;BME280;53009;52.490;4.976;2022-10-16T06:28:36;101100;;;13.4;9.1
66206;BME280;53009;52.490;4.976;2022-10-16T06:32:18;101100;;;13.4;9.1
66206;BME280;53009;52.490;4.976;2022-10-16T06:33:50;101100;;;13.4;9.1
66206;BME280;53009;52.490;4.976;2022-10-16T06:36:56;101100;;;13.4;9.1
66206;BME280;53009;52.490;4.976;2022-10-16T06:40:18;101100;;;13.4;9.1
66206;BME280;53009;52.490;4.976;2022-10-16T06:41:40;101100;;;13.5;9.1
66206;BME280;53009;52.490;4.976;2022-10-16T06:44:08;101100;;;13.5;9.1
66206;BME280;53009;52.490;4.976;2022-10-16T06:45:21;101200;;;13.5;9.1
66206;BME280;53009;52.490;4.976;2022-10-16T06:48:50;101200;;;13.5;9.1
66206;BME280;53009;52.490;4.976;2022-10-16T06:53:01;101200;;;13.5;9.1
66206;BME280;53009;52.490;4.976;2022-10-16T06:54:42;101200;;;13.5;9.1
66206;BME280;53009;52.490;4.976;2022-10-16T06:58:05;101200;;;13.5;9
66206;BME280;53009;52.490;4.976;2022-10-16T06:59:36;101200;;;13.5;9
66206;BME280;53009;52.490;4.976;2022-10-16T07:03:25;101200;;;13.5;9
66206;BME280;53009;52.490;4.976;2022-10-16T07:06:31;101200;;;13.4;9.1
66206;BME280;53009;52.490;4.976;2022-10-16T07:09:36;101200;;;13.4;9.1
66206;BME280;53009;52.490;4.976;2022-10-16T07:10:36;101200;;;13.4;9.2
66206;BME280;53009;52.490;4.976;2022-10-16T07:12:26;101200;;;13.4;9.2
66206;BME280;53009;52.490;4.976;2022-10-16T07:16:35;101200;;;13.5;9.1
66206;BME280;53009;52.490;4.976;2022-10-16T07:21:52;101200;;;13.6;9
66206;BME280;53009;52.490;4.976;2022-10-16T07:22:42;101200;;;13.6;8.8
66206;BME280;53009;52.490;4.976;2022-10-16T07:24:45;101200;;;13.7;8.6
66206;BME280;53009;52.490;4.976;2022-10-16T07:25:43;101200;;;13.7;8.5
66206;BME280;53009;52.490;4.976;2022-10-16T07:28:32;101200;;;13.7;8.4
66206;BME280;53009;52.490;4.976;2022-10-16T07:31:54;101200;;;13.8;8.2
66206;BME280;53009;52.490;4.976;2022-10-16T07:33:58;101200;;;13.8;8.1
66206;BME280;53009;52.490;4.976;2022-10-16T07:35:50;101300;;;13.9;8.1
66206;BME280;53009;52.490;4.976;2022-10-16T07:36:36;101300;;;13.9;7.8
66206;BME280;53009;52.490;4.976;2022-10-16T07:37:55;101200;;;14;7.9
66206;BME280;53009;52.490;4.976;2022-10-16T07:39:56;101300;;;14.1;7.7
66206;BME280;53009;52.490;4.976;2022-10-16T07:41:03;101300;;;14.1;7.6
66206;BME280;53009;52.490;4.976;2022-10-16T07:42:24;101300;;;14.1;7.6
66206;BME280;53009;52.490;4.976;2022-10-16T07:43:39;101300;;;14.3;7.4
66206;BME280;53009;52.490;4.976;2022-10-16T07:44:53;101300;;;14.4;7.2
66206;BME280;53009;52.490;4.976;2022-10-16T07:45:52;101300;;;14.4;7.3
66206;BME280;53009;52.490;4.976;2022-10-16T07:46:41;101300;;;14.3;7.1
66206;BME280;53009;52.490;4.976;2022-10-16T07:48:43;101300;;;14.2;7
66206;BME280;53009;52.490;4.976;2022-10-16T07:53:02;101300;;;14.1;7.3
66206;BME280;53009;52.490;4.976;2022-10-16T07:58:02;101300;;;14;7.5
66206;BME280;53009;52.490;4.976;2022-10-16T07:58:40;101300;;;14;7.5
66206;BME280;53009;52.490;4.976;2022-10-16T08:00:49;101300;;;14.2;7.5
66206;BME280;53009;52.490;4.976;2022-10-16T08:02:04;101300;;;14.2;7.5
66206;BME280;53009;52.490;4.976;2022-10-16T08:05:10;101300;;;14.5;7.4
66206;BME280;53009;52.490;4.976;2022-10-16T08:10:11;101300;;;15;6.6
66206;BME280;53009;52.490;4.976;2022-10-16T08:11:28;101300;;;15;6.3
66206;BME280;53009;52.490;4.976;2022-10-16T08:13:50;101300;;;15;6.1
66206;BME280;53009;52.490;4.976;2022-10-16T08:18:51;101300;;;14.9;6.1
66206;BME280;53009;52.490;4.976;2022-10-16T08:23:52;101300;;;14.7;6.4
66206;BME280;53009;52.490;4.976;2022-10-16T08:24:36;101300;;;14.7;6.4
66206;BME280;53009;52.490;4.976;2022-10-16T08:27:40;101400;;;14.7;6.4
66206;BME280;53009;52.490;4.976;2022-10-16T08:30:47;101400;;;14.7;6.6
66206;BME280;53009;52.490;4.976;2022-10-16T08:31:45;101400;;;14.7;6.6
66206;BME280;53009;52.490;4.976;2022-10-16T08:34:51;101400;;;14.7;6.5
66206;BME280;53009;52.490;4.976;2022-10-16T08:39:51;101400;;;15.1;6.1
66206;BME280;53009;52.490;4.976;2022-10-16T08:42:31;101400;;;15.3;5.9
66206;BME280;53009;52.490;4.976;2022-10-16T08:43:47;101400;;;15.4;5.8
66206;BME280;53009;52.490;4.976;2022-10-16T08:46:06;101400;;;15.5;5.7
66206;BME280;53009;52.490;4.976;2022-10-16T08:50:08;101400;;;15.7;5.4
66206;BME280;53009;52.490;4.976;2022-10-16T08:51:15;101400;;;15.7;5.2
66206;BME280;53009;52.490;4.976;2022-10-16T08:53:15;101400;;;15.7;5.3
66206;BME280;53009;52.490;4.976;2022-10-16T08:54:29;101400;;;15.7;5.2
66206;BME280;53009;52.490;4.976;2022-10-16T08:55:42;101400;;;15.8;5.3
66206;BME280;53009;52.490;4.976;2022-10-16T08:58:40;101400;;;15.9;5.1
66206;BME280;53009;52.490;4.976;2022-10-16T08:59:37;101400;;;15.8;4.9
66206;BME280;53009;52.490;4.976;2022-10-16T09:00:36;101400;;;15.8;5.3
66206;BME280;53009;52.490;4.976;2022-10-16T09:05:47;101400;;;15.9;5
66206;BME280;53009;52.490;4.976;2022-10-16T09:10:38;101400;;;16.3;4.8
66206;BME280;53009;52.490;4.976;2022-10-16T09:15:38;101400;;;15.9;4.9
66206;BME280;53009;52.490;4.976;2022-10-16T09:20:38;101400;;;16.1;4.9
66206;BME280;53009;52.490;4.976;2022-10-16T09:25:36;101400;;;16.6;4.7
66206;BME280;53009;52.490;4.976;2022-10-16T09:30:36;101400;;;17;3.7
66206;BME280;53009;52.490;4.976;2022-10-16T09:35:37;101400;;;16.8;4
66206;BME280;53009;52.490;4.976;2022-10-16T09:40:37;101400;;;16.7;3.7
66206;BME280;53009;52.490;4.976;2022-10-16T09:45:36;101400;;;17;3.1
66206;BME280;53009;52.490;4.976;2022-10-16T09:50:37;101400;;;17.3;3.1
66206;BME280;53009;52.490;4.976;2022-10-16T09:55:36;101400;;;17.2;2.6
66206;BME280;53009;52.490;4.976;2022-10-16T10:00:36;101400;;;16.7;1.1
66206;BME280;53009;52.490;4.976;2022-10-16T10:05:37;101500;;;16.7;1.4
66206;BME280;53009;52.490;4.976;2022-10-16T10:10:36;101500;;;16.7;1.4
66206;BME280;53009;52.490;4.976;2022-10-16T10:15:41;101500;;;16.8;0.9
66206;BME280;53009;52.490;4.976;2022-10-16T10:20:36;101500;;;16.7;0
66206;BME280;53009;52.490;4.976;2022-10-16T10:25:39;101500;;;17;0
66206;BME280;53009;52.490;4.976;2022-10-16T10:30:38;101500;;;17;0
66206;BME280;53009;52.490;4.976;2022-10-16T10:35:39;101500;;;17;0
66206;BME280;53009;52.490;4.976;2022-10-16T10:40:39;101500;;;16.9;0
66206;BME280;53009;52.490;4.976;2022-10-16T10:45:38;101500;;;16.9;0
66206;BME280;53009;52.490;4.976;2022-10-16T10:50:38;101500;;;16.7;0
66206;BME280;53009;52.490;4.976;2022-10-16T10:55:17;101500;;;16.7;0
66206;BME280;53009;52.490;4.976;2022-10-16T11:00:20;101600;;;16.5;0.5
66206;BME280;53009;52.490;4.976;2022-10-16T11:00:42;101600;;;16.4;0.8
66206;BME280;53009;52.490;4.976;2022-10-16T11:01:47;101600;;;16.4;1.1
66206;BME280;53009;52.490;4.976;2022-10-16T11:02:45;101600;;;16.3;1.1
66206;BME280;53009;52.490;4.976;2022-10-16T11:03:55;101600;;;16.2;1.1
66206;BME280;53009;52.490;4.976;2022-10-16T11:08:50;101600;;;16.2;1.5
66206;BME280;53009;52.490;4.976;2022-10-16T11:10:38;101600;;;16.4;1.4
66206;BME280;53009;52.490;4.976;2022-10-16T11:12:18;101600;;;16.6;1.4
66206;BME280;53009;52.490;4.976;2022-10-16T11:15:32;101600;;;17;0.5
66206;BME280;53009;52.490;4.976;2022-10-16T11:17:42;101600;;;17.2;0.3
66206;BME280;53009;52.490;4.976;2022-10-16T11:18:41;101600;;;17.2;0.1
66206;BME280;53009;52.490;4.976;2022-10-16T11:21:54;101600;;;17.4;0
66206;BME280;53009;52.490;4.976;2022-10-16T11:24:13;101600;;;17.4;0
66206;BME280;53009;52.490;4.976;2022-10-16T11:25:18;101600;;;17.3;0
66206;BME280;53009;52.490;4.976;2022-10-16T11:26:10;101600;;;17.3;0
66206;BME280;53009;52.490;4.976;2022-10-16T11:31:24;101600;;;17.6;0
66206;BME280;53009;52.490;4.976;2022-10-16T11:33:48;101600;;;17.5;0
66206;BME280;53009;52.490;4.976;2022-10-16T11:38:49;101600;;;17.6;0
66206;BME280;53009;52.490;4.976;2022-10-16T11:42:31;101600;;;17.4;0
66206;BME280;53009;52.490;4.976;2022-10-16T11:47:17;101600;;;17.4;0
66206;BME280;53009;52.490;4.976;2022-10-16T11:50:14;101600;;;17.5;0
66206;BME280;53009;52.490;4.976;2022-10-16T11:51:19;101600;;;17.7;0
66206;BME280;53009;52.490;4.976;2022-10-16T11:52:25;101600;;;17.7;0
66206;BME280;53009;52.490;4.976;2022-10-16T11:53:34;101600;;;17.7;0
66206;BME280;53009;52.490;4.976;2022-10-16T11:54:53;101600;;;17.7;0
66206;BME280;53009;52.490;4.976;2022-10-16T11:57:51;101600;;;17.7;0
66206;BME280;53009;52.490;4.976;2022-10-16T12:00:20;101600;;;17.6;0
66206;BME280;53009;52.490;4.976;2022-10-16T12:01:27;101600;;;17.6;0
66206;BME280;53009;52.490;4.976;2022-10-16T12:02:32;101600;;;17.6;0
66206;BME280;53009;52.490;4.976;2022-10-16T12:05:52;101600;;;17.8;0
66206;BME280;53009;52.490;4.976;2022-10-16T12:06:36;101600;;;17.8;0
66206;BME280;53009;52.490;4.976;2022-10-16T12:09:40;101600;;;18;0
66206;BME280;53009;52.490;4.976;2022-10-16T12:10:47;101600;;;18;0
66206;BME280;53009;52.490;4.976;2022-10-16T12:12:57;101600;;;18;0
66206;BME280;53009;52.490;4.976;2022-10-16T12:17:56;101600;;;18.1;0
66206;BME280;53009;52.490;4.976;2022-10-16T12:22:57;101600;;;17.8;0
66206;BME280;53009;52.490;4.976;2022-10-16T12:27:58;101600;;;17.9;0
66206;BME280;53009;52.490;4.976;2022-10-16T12:32:57;101600;;;17.7;0
66206;BME280;53009;52.490;4.976;2022-10-16T12:38:15;101600;;;17.8;0
66206;BME280;53009;52.490;4.976;2022-10-16T12:42:57;101600;;;18;0
66206;BME280;53009;52.490;4.976;2022-10-16T12:47:57;101600;;;18;0
66206;BME280;53009;52.490;4.976;2022-10-16T12:52:56;101600;;;18.1;0
66206;BME280;53009;52.490;4.976;2022-10-16T12:58:00;101600;;;18;100
66206;BME280;53009;52.490;4.976;2022-10-16T13:03:01;101600;;;18;0
66206;BME280;53009;52.490;4.976;2022-10-16T13:07:59;101600;;;18;100
66206;BME280;53009;52.490;4.976;2022-10-16T13:13:02;101600;;;17.9;0
66206;BME280;53009;52.490;4.976;2022-10-16T13:17:58;101600;;;17.5;0
66206;BME280;53009;52.490;4.976;2022-10-16T13:22:59;101600;;;17.5;100
66206;BME280;53009;52.490;4.976;2022-10-16T13:27:58;101600;;;17.5;100
66206;BME280;53009;52.490;4.976;2022-10-16T13:32:59;101600;;;17.4;0
66206;BME280;53009;52.490;4.976;2022-10-16T13:38:09;101700;;;17.3;0
66206;BME280;53009;52.490;4.976;2022-10-16T13:42:59;101700;;;17.5;0
66206;BME280;53009;52.490;4.976;2022-10-16T13:48:04;101700;;;17.2;0
66206;BME280;53009;52.490;4.976;2022-10-16T13:53:05;101700;;;17;0
66206;BME280;53009;52.490;4.976;2022-10-16T13:58:04;101700;;;16.9;0
66206;BME280;53009;52.490;4.976;2022-10-16T14:02:58;101700;;;17;0
66206;BME280;53009;52.490;4.976;2022-10-16T14:07:57;101700;;;17;0
66206;BME280;53009;52.490;4.976;2022-10-16T14:12:57;101700;;;17;0
66206;BME280;53009;52.490;4.976;2022-10-16T14:17:57;101700;;;17;0
66206;BME280;53009;52.490;4.976;2022-10-16T14:22:58;101700;;;17;0
66206;BME280;53009;52.490;4.976;2022-10-16T14:27:58;101700;;;17.1;0
66206;BME280;53009;52.490;4.976;2022-10-16T14:32:57;101700;;;17;0
66206;BME280;53009;52.490;4.976;2022-10-16T14:37:57;101700;;;17;0
66206;BME280;53009;52.490;4.976;2022-10-16T14:42:57;101700;;;16.9;0
66206;BME280;53009;52.490;4.976;2022-10-16T14:47:57;101700;;;16.9;0
66206;BME280;53009;52.490;4.976;2022-10-16T14:52:57;101700;;;16.8;0
66206;BME280;53009;52.490;4.976;2022-10-16T14:57:57;101700;;;16.8;0
66206;BME280;53009;52.490;4.976;2022-10-16T15:02:57;101700;;;16.7;0
66206;BME280;53009;52.490;4.976;2022-10-16T15:07:57;101700;;;16.7;0.8
66206;BME280;53009;52.490;4.976;2022-10-16T15:12:57;101700;;;16.6;1.2
66206;BME280;53009;52.490;4.976;2022-10-16T15:17:57;101700;;;16.6;1.6
66206;BME280;53009;52.490;4.976;2022-10-16T15:22:57;101700;;;16.5;2
66206;BME280;53009;52.490;4.976;2022-10-16T15:27:57;101700;;;16.4;2.5
66206;BME280;53009;52.490;4.976;2022-10-16T15:32:57;101700;;;16.3;2.7
66206;BME280;53009;52.490;4.976;2022-10-16T15:37:57;101700;;;16.3;3
66206;BME280;53009;52.490;4.976;2022-10-16T15:42:57;101700;;;16.2;3.4
66206;BME280;53009;52.490;4.976;2022-10-16T15:47:57;101700;;;16;3.7
66206;BME280;53009;52.490;4.976;2022-10-16T15:52:57;101700;;;15.9;3.8
66206;BME280;53009;52.490;4.976;2022-10-16T15:57:57;101700;;;15.8;4
66206;BME280;53009;52.490;4.976;2022-10-16T16:02:57;101700;;;15.7;4.2
66206;BME280;53009;52.490;4.976;2022-10-16T16:07:57;101700;;;15.6;4.3
66206;BME280;53009;52.490;4.976;2022-10-16T16:12:57;101700;;;15.4;4.5
66206;BME280;53009;52.490;4.976;2022-10-16T16:17:57;101700;;;15.2;4.7
66206;BME280;53009;52.490;4.976;2022-10-16T16:22:57;101700;;;15.2;4.7
66206;BME280;53009;52.490;4.976;2022-10-16T16:27:57;101700;;;15;4.8
66206;BME280;53009;52.490;4.976;2022-10-16T16:32:57;101700;;;14.8;5
66206;BME280;53009;52.490;4.976;2022-10-16T16:37:57;101700;;;14.7;5.1
66206;BME280;53009;52.490;4.976;2022-10-16T16:42:57;101800;;;14.6;5.2
66206;BME280;53009;52.490;4.976;2022-10-16T16:47:57;101800;;;14.4;5.3
66206;BME280;53009;52.490;4.976;2022-10-16T16:52:57;101800;;;14.4;5.5
66206;BME280;53009;52.490;4.976;2022-10-16T16:57:57;101800;;;14.4;5.5
66206;BME280;53009;52.490;4.976;2022-10-16T17:02:57;101800;;;14.3;5.6
66206;BME280;53009;52.490;4.976;2022-10-16T17:07:57;101800;;;14.2;5.6
66206;BME280;53009;52.490;4.976;2022-10-16T17:12:57;101800;;;14.2;5.7
66206;BME280;53009;52.490;4.976;2022-10-16T17:17:57;101800;;;14.2;5.8
66206;BME280;53009;52.490;4.976;2022-10-16T17:22:57;101800;;;14.2;5.9
66206;BME280;53009;52.490;4.976;2022-10-16T17:27:57;101800;;;14.1;5.9
66206;BME280;53009;52.490;4.976;2022-10-16T17:32:57;101800;;;14.1;6.1
66206;BME280;53009;52.490;4.976;2022-10-16T17:37:57;101800;;;14;6.1
66206;BME280;53009;52.490;4.976;2022-10-16T17:42:57;101800;;;14;6.2
66206;BME280;53009;52.490;4.976;2022-10-16T17:47:57;101800;;;14;6.2
66206;BME280;53009;52.490;4.976;2022-10-16T17:52:57;101800;;;14;6.3
66206;BME280;53009;52.490;4.976;2022-10-16T17:57:57;101800;;;14;6.3
66206;BME280;53009;52.490;4.976;2022-10-16T18:02:57;101800;;;13.9;6.5
66206;BME280;53009;52.490;4.976;2022-10-16T18:07:57;101800;;;13.8;6.4
66206;BME280;53009;52.490;4.976;2022-10-16T18:12:57;101800;;;13.8;6.6
66206;BME280;53009;52.490;4.976;2022-10-16T18:17:57;101800;;;13.8;6.6
66206;BME280;53009;52.490;4.976;2022-10-16T18:22:57;101800;;;13.8;6.7
66206;BME280;53009;52.490;4.976;2022-10-16T18:27:57;101800;;;13.8;6.8
66206;BME280;53009;52.490;4.976;2022-10-16T18:32:57;101800;;;13.8;6.8
66206;BME280;53009;52.490;4.976;2022-10-16T18:37:57;101800;;;13.8;6.9
66206;BME280;53009;52.490;4.976;2022-10-16T18:42:57;101800;;;13.7;7
66206;BME280;53009;52.490;4.976;2022-10-16T18:47:57;101800;;;13.7;7.1
66206;BME280;53009;52.490;4.976;2022-10-16T18:52:57;101800;;;13.7;7.2
66206;BME280;53009;52.490;4.976;2022-10-16T18:57:57;101800;;;13.8;7.2
66206;BME280;53009;52.490;4.976;2022-10-16T19:02:57;101800;;;13.8;7.2
66206;BME280;53009;52.490;4.976;2022-10-16T19:07:57;101800;;;13.8;7.2
66206;BME280;53009;52.490;4.976;2022-10-16T19:12:57;101800;;;13.8;7.3
66206;BME280;53009;52.490;4.976;2022-10-16T19:17:57;101800;;;13.8;7.4
66206;BME280;53009;52.490;4.976;2022-10-16T19:22:57;101800;;;13.8;7.5
66206;BME280;53009;52.490;4.976;2022-10-16T19:27:57;101800;;;13.8;7.5
66206;BME280;53009;52.490;4.976;2022-10-16T19:32:57;101800;;;13.8;7.6
66206;BME280;53009;52.490;4.976;2022-10-16T19:37:57;101800;;;13.8;7.6
66206;BME280;53009;52.490;4.976;2022-10-16T19:42:57;101800;;;13.8;7.6
66206;BME280;53009;52.490;4.976;2022-10-16T19:47:57;101800;;;13.8;7.7
66206;BME280;53009;52.490;4.976;2022-10-16T19:52:57;101800;;;13.8;7.7
66206;BME280;53009;52.490;4.976;2022-10-16T19:57:57;101800;;;13.8;7.8
66206;BME280;53009;52.490;4.976;2022-10-16T20:02:57;101800;;;13.8;7.8
66206;BME280;53009;52.490;4.976;2022-10-16T20:07:57;101800;;;13.8;7.7
66206;BME280;53009;52.490;4.976;2022-10-16T20:12:57;101800;;;13.8;7.9
66206;BME280;53009;52.490;4.976;2022-10-16T20:17:57;101800;;;13.7;8
66206;BME280;53009;52.490;4.976;2022-10-16T20:22:57;101800;;;13.8;7.8
66206;BME280;53009;52.490;4.976;2022-10-16T20:27:57;101800;;;13.8;7.7
66206;BME280;53009;52.490;4.976;2022-10-16T20:32:57;101800;;;13.8;7.6
66206;BME280;53009;52.490;4.976;2022-10-16T20:37:57;101800;;;13.8;7.6
66206;BME280;53009;52.490;4.976;2022-10-16T20:42:57;101800;;;13.8;7.6
66206;BME280;53009;52.490;4.976;2022-10-16T20:47:57;101800;;;13.8;7.6
66206;BME280;53009;52.490;4.976;2022-10-16T20:52:57;101800;;;13.8;7.6
66206;BME280;53009;52.490;4.976;2022-10-16T20:57:57;101800;;;13.8;7.6
66206;BME280;53009;52.490;4.976;2022-10-16T21:02:57;101800;;;13.8;7.6
66206;BME280;53009;52.490;4.976;2022-10-16T21:07:57;101800;;;13.8;7.6
66206;BME280;53009;52.490;4.976;2022-10-16T21:09:15;101800;;;13.8;7.6
66206;BME280;53009;52.490;4.976;2022-10-16T21:14:15;101800;;;13.8;7.8
66206;BME280;53009;52.490;4.976;2022-10-16T21:14:45;101800;;;13.8;7.8
66206;BME280;53009;52.490;4.976;2022-10-16T21:16:47;101800;;;13.8;7.7
66206;BME280;53009;52.490;4.976;2022-10-16T21:21:47;101800;;;13.8;7.8
66206;BME280;53009;52.490;4.976;2022-10-16T21:26:47;101800;;;13.8;7.8
66206;BME280;53009;52.490;4.976;2022-10-16T21:27:36;101800;;;13.8;7.9
66206;BME280;53009;52.490;4.976;2022-10-16T21:28:36;101800;;;13.7;7.9
66206;BME280;53009;52.490;4.976;2022-10-16T21:29:36;101800;;;13.8;8
66206;BME280;53009;52.490;4.976;2022-10-16T21:30:39;101800;;;13.7;8
66206;BME280;53009;52.490;4.976;2022-10-16T21:33:08;101800;;;13.7;7.9
66206;BME280;53009;52.490;4.976;2022-10-16T21:34:05;101800;;;13.7;8
66206;BME280;53009;52.490;4.976;2022-10-16T21:39:20;101800;;;13.7;8
66206;BME280;53009;52.490;4.976;2022-10-16T21:41:30;101800;;;13.7;8.1
66206;BME280;53009;52.490;4.976;2022-10-16T21:42:52;101800;;;13.7;8.1
66206;BME280;53009;52.490;4.976;2022-10-16T21:43:50;101800;;;13.7;8
66206;BME280;53009;52.490;4.976;2022-10-16T21:45:59;101800;;;13.7;8
66206;BME280;53009;52.490;4.976;2022-10-16T21:47:24;101800;;;13.6;8.1
66206;BME280;53009;52.490;4.976;2022-10-16T21:48:22;101800;;;13.7;8.1
66206;BME280;53009;52.490;4.976;2022-10-16T21:53:22;101800;;;13.7;8.2
66206;BME280;53009;52.490;4.976;2022-10-16T21:56:56;101800;;;13.6;8.2
66206;BME280;53009;52.490;4.976;2022-10-16T21:58:02;101800;;;13.7;8.2
66206;BME280;53009;52.490;4.976;2022-10-16T22:03:02;101700;;;13.6;8.2
66206;BME280;53009;52.490;4.976;2022-10-16T22:04:35;101700;;;13.6;8.2